Du har inga inställningar för hoppväder.nu

Hoppväder.nu

Senast uppdaterat 06:34

UTC-tid

2020-04-08 kl. 04:34


Sol och måne

Solen går upp 6:16 och går ner 21:15 (beräknade cirkatider)
Nästa fullmåne blir om 29 dagar (2020-05-07)

METAR

ENRY (Moss, Rygge)
(44 minuter sedan)
ENRY 080350Z AUTO 20009KT 9999NDV NCD 05/01 Q1025=



ESGT (Trollhättan/Vänersborg)
(14 minuter sedan)
ESGT 080420Z AUTO 17006KT 9999 NCD 00/M01 Q1028=



ENTO (Sandefjord)
(14 minuter sedan)
ENTO 080420Z 22011KT CAVOK 05/02 Q1025 NOSIG=



ESIB (Såtenäs)
(14 minuter sedan)
ESIB 080420Z 20009KT CAVOK 02/02 Q1028=



ESOK (Karlstad)
(14 minuter sedan)
ESOK 080420Z AUTO 21009KT 9999 NCD 01/01 Q1025=



TAF

ENRY (Moss, Rygge)
(1774 minuter sedan)
ENRY 072300Z 0800/0824 19005KT CAVOK BECMG 0807/0809 19015KT TEMPO 0809/0815 19020G30KT BECMG 0818/0820 34008KT=



ESGT (Trollhättan/Vänersborg)
ESGT



ENTO (Sandefjord)
(1774 minuter sedan)
ENTO 072300Z 0800/0824 22008KT CAVOK TEMPO 0810/0815 19015G25KT BECMG 0818/0820 30010KT=



ESIB (Såtenäs)
ESIB



ESOK (Karlstad)
ESOK





Kodnycklar till TAF och METAR






LHP

(Näsinge är område se21e i Delområde 1)

Översikt

ÖVERSIKT FÖR OMRÅDE se2 UTFÄRDAD 080342

GÄLLANDE DEN 8 APRIL 2020 MELLAN 04 OCH 12 UTC


Väderöversikt

En högtrycksrygg över södra Sverige rör sig österut. Frisk sydvästlig luftström över Svealand.

Sikt under 5 kilometer eller molnbas under 1000 fot
Väntas inte förekomma under perioden.

Måttlig eller svår isbildning
Väntas inte förekomma under perioden

Måttlig eller svår turbulens
08-12UTC: Hela området utom se22


Delområde 1

PROGNOS FÖR OMRÅDE se21 UTFÄRDAD 080342
GÄLLANDE DEN 8 APRIL 2020 MELLAN 04 OCH 12 UTC

Måttlig eller svår turbulens
04-08UTC: Område se21d,se21a,se21h,se21f,se21e,se21k,se21j,se21i: Väntas inte förekomma under perioden

04-10UTC: Område se21c,se21b,se21g,se21l,se21n,se21m: Väntas inte förekomma under perioden

04-12UTC: Område se21o: Väntas inte förekomma under perioden

08-12UTC: Område se21d,se21a,se21h,se21f,se21e,se21k,se21j,se21i: måttlig turbulens SFC - 3000ft.

10-12UTC: Område se21c,se21b,se21g,se21l,se21n,se21m: måttlig turbulens SFC - 3000ft.


Måttlig eller svår isbildning
04-12UTC: I hela området: Väntas inte förekomma under perioden

Sikt/Väder/Moln
04-12UTC: I hela området: Sikt >8km. Molnbas >2000ft.

Molnöversida
04-12UTC: I hela området: Ingen prognos

CB/TCU Moln
04-12UTC: I hela området: Väntas inte förekomma under perioden

Nollgradersisoterm
04-10UTC: Noll grader FL050 - FL090.
10-12UTC: Noll grader 4000ft - FL090.

Vind vid marken
04-06UTC: Område se21e: SV/3-18 knop, byar upp till 24 knop.
Område se21n: S-SV/0-6 knop, byar upp till 14 knop.
Område se21m: S-SV/3-16 knop, byar upp till 19 knop.
Område se21f: S-SV/2-10 knop.
Område se21a: SV/5-18 knop, byar upp till 24 knop.
Område se21o: S/0-5 knop.
Område se21l: SV/2-10 knop, byar upp till 19 knop.
Område se21d: SV-V/2-13 knop, byar upp till 27 knop.
Område se21j: SV/3-11 knop, byar upp till 21 knop.
Område se21g: S/0-5 knop, byar upp till 11 knop.
Område se21h: SV/2-17 knop, byar upp till 22 knop.
Område se21c: S-SV/2-13 knop, byar upp till 16 knop.
Område se21b: SV/4-14 knop, byar upp till 17 knop.
Område se21i: SV/3-15 knop, byar upp till 19 knop.
Område se21k: SV/2-10 knop, byar upp till 23 knop.

06-08UTC: Område se21c: S-SV/7-16 knop, byar upp till 22 knop.
Område se21l: SV/5-13 knop, byar upp till 23 knop.
Område se21i: SV/6-16 knop, byar upp till 23 knop.
Område se21d: SV/6-12 knop, byar upp till 27 knop.
Område se21f: S-SV/5-12 knop, byar upp till 19 knop.
Område se21n: SV/2-9 knop, byar upp till 18 knop.
Område se21h: SV/5-18 knop, byar upp till 24 knop.
Område se21g: S-SV/4-12 knop, byar upp till 20 knop.
Område se21b: S-SV/8-14 knop, byar upp till 19 knop.
Område se21k: SV/5-11 knop, byar upp till 25 knop.
Område se21j: SV/6-12 knop, byar upp till 25 knop.
Område se21o: S-SV/1-8 knop, byar upp till 17 knop.
Område se21e: SV/5-16 knop, byar upp till 26 knop.
Område se21m: S-SV/5-16 knop, byar upp till 21 knop.
Område se21a: SV/7-16 knop, byar upp till 23 knop.

08-10UTC: Område se21a: S-SV/8-16 knop, byar upp till 24 knop.
Område se21e: SV/8-16 knop, byar upp till 27 knop.
Område se21o,se21n: SV/5-11 knop, byar upp till 22 knop.
Område se21k: SV/7-14 knop, byar upp till 25 knop.
Område se21b: S-SV/9-15 knop, byar upp till 23 knop.
Område se21h: SV/7-18 knop, byar upp till 27 knop.
Område se21f: SV/8-15 knop, byar upp till 24 knop.
Område se21j: SV-V/8-16 knop, byar upp till 29 knop.
Område se21l: SV/8-14 knop, byar upp till 25 knop.
Område se21g: S-SV/7-14 knop, byar upp till 24 knop.
Område se21i: SV/8-15 knop, byar upp till 26 knop.
Område se21m: S-SV/6-16 knop, byar upp till 23 knop.
Område se21d: SV/8-14 knop, byar upp till 27 knop.

08-12UTC: Område se21c: S-SV/9-16 knop, byar upp till 25 knop.

10-12UTC: Område se21m: S-SV/6-18 knop, byar upp till 27 knop.
Område se21j: SV-V/8-17 knop, byar upp till 32 knop.
Område se21l: SV/8-15 knop, byar upp till 28 knop.
Område se21e: SV/8-19 knop, byar upp till 28 knop.
Område se21h: SV/7-18 knop, byar upp till 29 knop.
Område se21f: SV/8-15 knop, byar upp till 26 knop.
Område se21n: SV/7-12 knop, byar upp till 26 knop.
Område se21a: S-SV/9-19 knop, byar upp till 27 knop.
Område se21b: S-SV/8-15 knop, byar upp till 24 knop.
Område se21o: SV/6-12 knop, byar upp till 25 knop.
Område se21i: SV/9-17 knop, byar upp till 29 knop.
Område se21g: S-SV/8-15 knop, byar upp till 25 knop.
Område se21d: SV/9-16 knop, byar upp till 30 knop.
Område se21k: SV/8-16 knop, byar upp till 29 knop.


Genomsnittlig vind och temperatur för området
2000ft:
04-06UTC: 250/27kt +4.
06-08UTC: 250/29kt +4.
08-10UTC: 240/24kt +4.
10-12UTC: 230/23kt +5.

FL50:
04-06UTC: 260/28kt +1.
06-08UTC: 260/30kt +0.
08-10UTC: 250/29kt +0.
10-12UTC: 240/30kt +0.

FL100:
04-06UTC: 260/33kt -4.
06-08UTC: 250/37kt -4.
08-12UTC: 260/39kt -5.

Lägsta QNH
1018 hPa.

OBS! endast utbredd måttlig eller svår isbildning och turbulens prognostiseras i LLF.
Avsaknad av isbildning och turbulens i prognosen utesluter inte förekomst av lätt isbildning och turbulens.
För indikation på lätt isbildning, var vänlig kontrollera om prognosen för molntopp ligger högre än nollgradersisotermen.
Förekomst av TCU eller CB medför alltid en risk för måttlig eller svår isbildning och turbulens även om det inte framgår explicit av prognosen.







Spotting

Hur fungerar spotthjälpen och Vindkartan?

Markvind är ca 2-9 m/s med byar på 12 m/s.
Vind på 600 m ca 14 m/s.
Vind på 1500 m ca 14 m/s.
Vind på 3000 m ca 17 m/s.
Filip Martin flyger ca 37 m/s över marken på finalen.
Du driver ca 764 m bakåt i frifall. (1019 m)
Lämplig spot är 13 sekunder eller 482 m efter gropen.
(20 s eller 741 m)
För små grupper eller ensamhoppare bör man vänta 4-6 sekunder mellan grupperna.
För större grupper bör man vänta 8-10 sekunder mellan grupperna.


Vindkartan

Senast uppdaterad 06:34




All data kommer från LFV.se